createdAt,value
2018-05-23T00:00:49.265Z,22.3
2018-05-23T00:01:39.325Z,22.3
2018-05-23T00:02:29.494Z,22.3
2018-05-23T00:03:19.463Z,22.3
2018-05-23T00:04:09.830Z,22.3
2018-05-23T00:04:59.574Z,22.4
2018-05-23T00:05:49.915Z,22.3
2018-05-23T00:06:39.735Z,22.3
2018-05-23T00:07:29.504Z,22.3
2018-05-23T00:08:20.134Z,22.4
2018-05-23T00:09:10.219Z,22.3
2018-05-23T00:12:01.138Z,22.3
2018-05-23T00:12:10.596Z,22.3
2018-05-23T00:13:00.643Z,22.4
2018-05-23T00:13:50.123Z,22.4
2018-05-23T00:14:40.515Z,22.4
2018-05-23T00:15:30.698Z,22.4
2018-05-23T00:16:20.363Z,22.4
2018-05-23T00:17:10.150Z,22.3
2018-05-23T00:18:00.795Z,22.4
2018-05-23T00:18:50.861Z,22.4
2018-05-23T00:19:41.483Z,22.3
2018-05-23T00:20:31.020Z,22.3
2018-05-23T00:21:20.455Z,22.4
2018-05-23T00:22:11.358Z,22.4
2018-05-23T00:23:01.166Z,22.3
2018-05-23T00:23:51.721Z,22.3
2018-05-23T00:24:41.538Z,22.3
2018-05-23T00:25:31.355Z,22.3
2018-05-23T00:26:21.785Z,22.3
2018-05-23T00:27:11.777Z,22.3
2018-05-23T00:28:02.073Z,22.4
2018-05-23T00:28:51.614Z,22.4
2018-05-23T00:29:42.199Z,22.4
2018-05-23T00:30:31.443Z,22.4
2018-05-23T00:31:22.299Z,22.4
2018-05-23T00:32:11.862Z,22.3
2018-05-23T00:33:01.060Z,22.4
2018-05-23T00:33:52.239Z,22.4
2018-05-23T00:34:42.088Z,22.4
2018-05-23T00:35:32.100Z,22.4
2018-05-23T00:36:21.939Z,22.4
2018-05-23T00:37:12.477Z,22.4
2018-05-23T00:38:02.592Z,22.4
2018-05-23T00:38:52.651Z,22.4
2018-05-23T00:39:42.691Z,22.4
2018-05-23T00:40:32.747Z,22.4
2018-05-23T00:41:22.909Z,22.4
2018-05-23T00:42:13.138Z,22.4
2018-05-23T00:43:03.217Z,22.4
2018-05-23T00:43:52.454Z,22.4
2018-05-23T00:44:42.792Z,22.4
2018-05-23T00:45:32.843Z,22.4
2018-05-23T00:46:22.727Z,22.4
2018-05-23T00:47:12.199Z,22.4
2018-05-23T00:48:03.419Z,22.4
2018-05-23T00:48:53.404Z,22.4
2018-05-23T00:49:43.443Z,22.4
2018-05-23T00:50:33.221Z,22.4
2018-05-23T00:51:22.436Z,22.4
2018-05-23T00:52:13.902Z,22.4
2018-05-23T00:53:02.954Z,22.4
2018-05-23T00:53:53.496Z,22.4
2018-05-23T00:54:43.584Z,22.4
2018-05-23T00:55:34.210Z,22.4
2018-05-23T00:56:24.251Z,22.4
2018-05-23T00:57:14.002Z,22.4
2018-05-23T00:58:04.366Z,22.4
2018-05-23T00:58:53.009Z,22.4
2018-05-23T00:59:44.200Z,22.4
2018-05-23T01:00:34.279Z,22.4
2018-05-23T01:01:23.480Z,22.4
2018-05-23T01:02:14.159Z,22.4
2018-05-23T01:03:04.476Z,22.4
2018-05-23T01:03:54.882Z,22.4
2018-05-23T01:04:44.870Z,22.4
2018-05-23T01:05:34.361Z,22.4
2018-05-23T01:06:24.454Z,22.4
2018-05-23T01:07:15.046Z,22.4
2018-05-23T01:08:04.890Z,22.4
2018-05-23T01:08:54.376Z,22.4
2018-05-23T01:09:44.655Z,22.4
2018-05-23T01:10:35.069Z,22.4
2018-05-23T01:11:24.804Z,22.4
2018-05-23T01:12:14.910Z,22.4
2018-05-23T01:13:05.246Z,22.4
2018-05-23T01:13:54.802Z,22.4
2018-05-23T01:14:45.096Z,22.4
2018-05-23T01:15:35.430Z,22.4
2018-05-23T01:16:25.773Z,22.4
2018-05-23T01:17:15.961Z,22.4
2018-05-23T01:18:05.650Z,22.4
2018-05-23T01:18:55.217Z,22.4
2018-05-23T01:19:45.792Z,22.4
2018-05-23T01:20:35.913Z,22.3
2018-05-23T01:21:25.284Z,22.3
2018-05-23T01:22:16.179Z,22.3
2018-05-23T01:23:05.702Z,22.3
2018-05-23T01:23:56.110Z,22.4
2018-05-23T01:24:46.428Z,22.3
2018-05-23T01:25:35.362Z,22.3
2018-05-23T01:26:26.519Z,22.3
2018-05-23T01:27:16.622Z,22.3
2018-05-23T01:28:06.085Z,22.3
2018-05-23T01:28:56.181Z,22.3
2018-05-23T01:29:46.514Z,22.3
2018-05-23T01:30:36.844Z,22.3
2018-05-23T01:31:26.108Z,22.3
2018-05-23T01:32:16.508Z,22.3
2018-05-23T01:33:06.201Z,22.3
2018-05-23T01:33:56.651Z,22.3
2018-05-23T01:34:46.629Z,22.3
2018-05-23T01:35:37.229Z,22.3
2018-05-23T01:36:26.225Z,22.3
2018-05-23T01:37:17.479Z,22.3
2018-05-23T01:38:06.846Z,22.3
2018-05-23T01:38:56.067Z,22.2
2018-05-23T01:39:47.581Z,22.1
2018-05-23T01:40:37.388Z,22.1
2018-05-23T01:41:27.443Z,22.1
2018-05-23T01:42:17.735Z,22.1
2018-05-23T01:43:07.555Z,22
2018-05-23T01:43:56.997Z,21.9
2018-05-23T01:44:47.170Z,21.9
2018-05-23T01:45:37.412Z,21.9
2018-05-23T01:46:27.846Z,21.9
2018-05-23T01:47:17.617Z,21.9
2018-05-23T01:48:07.136Z,21.9
2018-05-23T01:48:57.511Z,21.8
2018-05-23T01:49:47.854Z,21.8
2018-05-23T01:50:37.301Z,21.8
2018-05-23T01:51:27.419Z,21.8
2018-05-23T01:52:17.984Z,21.8
2018-05-23T01:53:08.045Z,21.8
2018-05-23T01:54:48.101Z,21.7
2018-05-23T01:55:38.710Z,21.7
2018-05-23T01:56:28.267Z,21.6
2018-05-23T01:57:17.993Z,21.6
2018-05-23T01:58:08.651Z,21.7
2018-05-23T01:58:59.086Z,21.7
2018-05-23T01:59:48.498Z,21.7
2018-05-23T02:00:37.983Z,21.7
2018-05-23T02:01:29.201Z,21.7
2018-05-23T02:02:18.668Z,21.8
2018-05-23T02:03:09.054Z,21.7
2018-05-23T02:03:59.139Z,21.7
2018-05-23T02:04:49.459Z,21.7
2018-05-23T02:05:39.239Z,21.7
2018-05-23T02:06:29.634Z,21.7
2018-05-23T02:07:19.399Z,21.7
2018-05-23T02:08:09.188Z,21.6
2018-05-23T02:08:58.653Z,21.6
2018-05-23T02:09:49.327Z,21.8
2018-05-23T02:10:39.064Z,21.8
2018-05-23T02:11:29.146Z,21.8
2018-05-23T02:12:20.102Z,21.8
2018-05-23T02:13:09.319Z,21.8
2018-05-23T02:13:59.561Z,21.8
2018-05-23T02:14:50.165Z,21.8
2018-05-23T02:15:39.519Z,21.8
2018-05-23T02:16:29.773Z,21.8
2018-05-23T02:17:19.835Z,21.8
2018-05-23T02:18:10.182Z,21.8
2018-05-23T02:19:00.259Z,21.7
2018-05-23T02:19:49.748Z,21.7
2018-05-23T02:20:40.137Z,21.7
2018-05-23T02:21:30.732Z,21.8
2018-05-23T02:22:20.516Z,21.8
2018-05-23T02:23:10.824Z,21.8
2018-05-23T02:24:00.065Z,21.8
2018-05-23T02:24:50.164Z,21.8
2018-05-23T02:25:41.017Z,21.8
2018-05-23T02:26:31.160Z,21.8
2018-05-23T02:27:20.359Z,21.8
2018-05-23T02:28:11.276Z,21.8
2018-05-23T02:29:01.260Z,21.8
2018-05-23T02:29:51.394Z,21.9
2018-05-23T02:30:41.415Z,21.9
2018-05-23T02:31:31.282Z,21.9
2018-05-23T02:32:21.570Z,21.9
2018-05-23T02:33:11.342Z,21.9
2018-05-23T02:34:01.419Z,21.9
2018-05-23T02:34:50.631Z,21.9
2018-05-23T02:35:40.965Z,21.9
2018-05-23T02:36:31.696Z,21.9
2018-05-23T02:37:21.114Z,21.9
2018-05-23T02:38:11.704Z,21.9
2018-05-23T02:39:01.789Z,21.9
2018-05-23T02:39:52.191Z,21.9
2018-05-23T02:40:41.907Z,21.9
2018-05-23T02:41:31.976Z,21.9
2018-05-23T02:42:21.512Z,21.9
2018-05-23T02:43:11.261Z,21.9
2018-05-23T02:44:01.018Z,21.9
2018-05-23T02:44:52.243Z,21.9
2018-05-23T02:45:41.702Z,21.9
2018-05-23T02:46:31.191Z,21.9
2018-05-23T02:47:22.641Z,21.9
2018-05-23T02:48:12.754Z,21.9
2018-05-23T02:49:02.243Z,21.9
2018-05-23T02:49:52.585Z,22
2018-05-23T02:50:42.641Z,22
2018-05-23T02:51:32.709Z,22
2018-05-23T02:52:21.611Z,22
2018-05-23T02:53:12.556Z,22
2018-05-23T02:54:03.168Z,22
2018-05-23T02:54:52.994Z,22
2018-05-23T02:55:43.422Z,22
2018-05-23T02:56:33.133Z,22.1
2018-05-23T02:57:23.455Z,22.1
2018-05-23T02:58:13.536Z,22.1
2018-05-23T02:59:03.288Z,22.1
2018-05-23T02:59:53.386Z,22.1
2018-05-23T03:00:43.479Z,22.1
2018-05-23T03:01:33.503Z,22.1
2018-05-23T03:02:23.260Z,22.1
2018-05-23T03:03:14.244Z,22.1
2018-05-23T03:04:03.976Z,22.1
2018-05-23T03:04:53.180Z,22.1
2018-05-23T03:05:43.499Z,22.2
2018-05-23T03:06:33.329Z,22.1
2018-05-23T03:07:23.440Z,22.2
2018-05-23T03:08:14.016Z,22.1
2018-05-23T03:09:03.292Z,22.1
2018-05-23T03:09:54.491Z,22.2
2018-05-23T03:10:43.406Z,22.1
2018-05-23T03:11:33.192Z,22.2
2018-05-23T03:12:24.054Z,22.2
2018-05-23T03:13:14.143Z,22.1
2018-05-23T03:14:03.942Z,22.2
2018-05-23T03:14:54.787Z,22.2
2018-05-23T03:15:44.580Z,22.2
2018-05-23T03:16:34.124Z,22.1
2018-05-23T03:17:24.204Z,22.2
2018-05-23T03:18:14.608Z,22.1
2018-05-23T03:19:04.657Z,22.1
2018-05-23T03:19:54.110Z,22.1
2018-05-23T03:20:44.449Z,22.2
2018-05-23T03:21:34.749Z,22.2
2018-05-23T03:22:25.052Z,22.2
2018-05-23T03:23:15.402Z,22.2
2018-05-23T03:24:05.466Z,22.2
2018-05-23T03:24:55.197Z,22.2
2018-05-23T03:25:45.258Z,22.1
2018-05-23T03:26:35.654Z,22.1
2018-05-23T03:27:25.439Z,22.2
2018-05-23T03:28:15.780Z,22.2
2018-05-23T03:29:05.897Z,22.2
2018-05-23T03:29:55.326Z,22.1
2018-05-23T03:30:46.009Z,22.2
2018-05-23T03:31:36.044Z,22.2
2018-05-23T03:32:25.870Z,22.2
2018-05-23T03:33:16.128Z,22.1
2018-05-23T03:34:05.936Z,22.1
2018-05-23T03:34:55.552Z,22.2
2018-05-23T03:35:45.921Z,22.2
2018-05-23T03:36:35.329Z,22.2
2018-05-23T03:37:25.754Z,22.2
2018-05-23T03:38:15.771Z,22.2
2018-05-23T03:39:06.342Z,22.2
2018-05-23T03:39:56.394Z,22.2
2018-05-23T03:40:46.447Z,22.2
2018-05-23T03:41:35.951Z,22.2
2018-05-23T03:42:26.876Z,22.2
2018-05-23T03:43:16.079Z,22.2
2018-05-23T03:44:07.049Z,22.1
2018-05-23T03:44:55.902Z,22.1
2018-05-23T03:45:47.101Z,22.2
2018-05-23T03:46:37.179Z,22.2
2018-05-23T03:47:26.495Z,22.2
2018-05-23T03:48:16.555Z,22.2
2018-05-23T03:49:06.333Z,22.2
2018-05-23T03:49:56.658Z,22.2
2018-05-23T03:50:46.414Z,22.2
2018-05-23T03:51:36.822Z,22.2
2018-05-23T03:52:26.534Z,22.2
2018-05-23T03:53:17.014Z,22.2
2018-05-23T03:54:07.225Z,22.2
2018-05-23T03:54:57.801Z,22.1
2018-05-23T03:55:47.092Z,22.1
2018-05-23T03:56:37.955Z,22.2
2018-05-23T03:57:27.395Z,22.2
2018-05-23T03:58:17.494Z,22.2
2018-05-23T03:59:08.131Z,22.2
2018-05-23T03:59:57.116Z,22.2
2018-05-23T04:00:48.254Z,22.2
2018-05-23T04:01:38.071Z,22.2
2018-05-23T04:02:28.076Z,22.2
2018-05-23T04:03:18.431Z,22.1
2018-05-23T04:04:08.251Z,22.2
2018-05-23T04:04:58.798Z,22.2
2018-05-23T04:05:48.643Z,22.2
2018-05-23T04:06:38.729Z,22.2
2018-05-23T04:07:28.163Z,22.2
2018-05-23T04:08:18.833Z,22.2
2018-05-23T04:09:08.322Z,22.3
2018-05-23T04:09:58.943Z,22.2
2018-05-23T04:10:49.091Z,22.2
2018-05-23T04:11:38.201Z,22.3
2018-05-23T04:12:29.103Z,22.2
2018-05-23T04:13:19.211Z,22.3
2018-05-23T04:14:09.000Z,22.3
2018-05-23T04:14:58.567Z,22.3
2018-05-23T04:15:48.999Z,22.3
2018-05-23T04:16:38.968Z,22.3
2018-05-23T04:17:29.058Z,22.3
2018-05-23T04:18:18.535Z,22.3
2018-05-23T04:19:08.636Z,22.3
2018-05-23T04:19:58.656Z,22.3
2018-05-23T04:20:49.322Z,22.3
2018-05-23T04:21:38.773Z,22.3
2018-05-23T04:22:28.603Z,22.3
2018-05-23T04:23:19.246Z,22.3
2018-05-23T04:24:09.821Z,22.3
2018-05-23T04:25:00.552Z,22.3
2018-05-23T04:25:48.852Z,22.3
2018-05-23T04:26:39.201Z,22.3
2018-05-23T04:27:29.823Z,22.3
2018-05-23T04:28:20.377Z,22.3
2018-05-23T04:29:09.958Z,22.3
2018-05-23T04:30:00.219Z,22.3
2018-05-23T04:30:50.513Z,22.3
2018-05-23T04:31:40.067Z,22.3
2018-05-23T04:32:30.107Z,22.3
2018-05-23T04:33:20.505Z,22.3
2018-05-23T04:34:10.561Z,22.3
2018-05-23T04:35:00.684Z,22.3
2018-05-23T04:35:50.643Z,22.3
2018-05-23T04:36:40.770Z,22.3
2018-05-23T04:37:31.230Z,22.3
2018-05-23T04:38:20.817Z,22.3
2018-05-23T04:39:10.933Z,22.3
2018-05-23T04:40:00.398Z,22.3
2018-05-23T04:40:50.499Z,22.4
2018-05-23T04:41:41.095Z,22.4
2018-05-23T04:42:31.141Z,22.3
2018-05-23T04:43:20.544Z,22.3
2018-05-23T04:44:11.038Z,22.3
2018-05-23T04:45:01.343Z,22.4
2018-05-23T04:45:50.881Z,22.3
2018-05-23T04:46:40.984Z,22.3
2018-05-23T04:47:31.243Z,22.4
2018-05-23T04:48:20.777Z,22.3
2018-05-23T04:49:11.407Z,22.4
2018-05-23T04:50:02.003Z,22.3
2018-05-23T04:50:52.080Z,22.3
2018-05-23T04:51:41.327Z,22.3
2018-05-23T04:52:31.934Z,22.3
2018-05-23T04:53:21.772Z,22.3
2018-05-23T04:54:11.887Z,22.4
2018-05-23T04:55:02.225Z,22.4
2018-05-23T04:55:52.204Z,22.3
2018-05-23T04:56:41.669Z,22.3
2018-05-23T04:57:32.588Z,22.3
2018-05-23T04:58:22.482Z,22.3
2018-05-23T04:59:12.407Z,22.4
2018-05-23T05:00:02.524Z,22.4
2018-05-23T05:00:52.545Z,22.4
2018-05-23T05:01:42.327Z,22.4
2018-05-23T05:02:32.712Z,22.4
2018-05-23T05:03:23.052Z,22.4
2018-05-23T05:04:12.040Z,22.4
2018-05-23T05:05:02.605Z,22.4
2018-05-23T05:05:52.659Z,22.4
2018-05-23T05:06:43.014Z,22.4
2018-05-23T05:07:32.811Z,22.4
2018-05-23T05:08:23.191Z,22.4
2018-05-23T05:09:13.497Z,22.4
2018-05-23T05:10:03.167Z,22.4
2018-05-23T05:10:53.305Z,22.4
2018-05-23T05:11:43.106Z,22.4
2018-05-23T05:12:33.495Z,22.4
2018-05-23T05:13:23.835Z,22.4
2018-05-23T05:14:13.545Z,22.4
2018-05-23T05:15:02.962Z,22.4
2018-05-23T05:15:53.462Z,22.4
2018-05-23T05:16:44.010Z,22.4
2018-05-23T05:17:34.083Z,22.4
2018-05-23T05:18:23.634Z,22.4
2018-05-23T05:19:14.298Z,22.4
2018-05-23T05:20:04.155Z,22.4
2018-05-23T05:20:54.333Z,22.4
2018-05-23T05:21:44.419Z,22.4
2018-05-23T05:22:34.447Z,22.4
2018-05-23T05:23:24.224Z,22.4
2018-05-23T05:24:13.791Z,22.4
2018-05-23T05:25:06.167Z,22.4
2018-05-23T05:25:54.422Z,22.4
2018-05-23T05:26:44.771Z,22.4
2018-05-23T05:27:34.329Z,22.4
2018-05-23T05:28:24.929Z,22.4
2018-05-23T05:29:14.952Z,22.4
2018-05-23T05:30:05.109Z,22.4
2018-05-23T05:30:54.839Z,22.5
2018-05-23T05:31:45.045Z,22.4
2018-05-23T05:32:34.389Z,22.4
2018-05-23T05:33:24.760Z,22.4
2018-05-23T05:34:15.077Z,22.4
2018-05-23T05:35:04.924Z,22.4
2018-05-23T05:35:55.484Z,22.4
2018-05-23T05:36:44.716Z,22.4
2018-05-23T05:37:35.908Z,22.4
2018-05-23T05:38:24.853Z,22.4
2018-05-23T05:39:14.972Z,22.4
2018-05-23T05:40:05.324Z,22.4
2018-05-23T05:40:54.741Z,22.4
2018-05-23T05:41:45.704Z,22.4
2018-05-23T05:42:35.721Z,22.4
2018-05-23T05:43:25.596Z,22.4
2018-05-23T05:44:15.825Z,22.4
2018-05-23T05:45:06.252Z,22.4
2018-05-23T05:45:56.229Z,22.4
2018-05-23T05:46:46.304Z,22.4
2018-05-23T05:47:36.188Z,22.4
2018-05-23T05:48:26.465Z,22.4
2018-05-23T05:49:16.238Z,22.4
2018-05-23T05:50:05.719Z,22.4
2018-05-23T05:50:56.351Z,22.5
2018-05-23T05:51:46.394Z,22.4
2018-05-23T05:52:36.767Z,22.4
2018-05-23T05:53:26.700Z,22.4
2018-05-23T05:54:16.647Z,22.4
2018-05-23T05:55:06.405Z,22.5
2018-05-23T05:55:57.087Z,22.5
2018-05-23T05:56:46.521Z,22.5
2018-05-23T05:57:37.139Z,22.5
2018-05-23T05:58:26.637Z,22.5
2018-05-23T05:59:16.811Z,22.5
2018-05-23T06:00:06.784Z,22.5
2018-05-23T06:00:57.381Z,22.4
2018-05-23T06:01:46.929Z,22.5
2018-05-23T06:02:37.525Z,22.5
2018-05-23T06:03:27.633Z,22.5
2018-05-23T06:04:16.588Z,22.5
2018-05-23T06:05:07.451Z,22.5
2018-05-23T06:05:57.858Z,22.5
2018-05-23T06:06:47.261Z,22.5
2018-05-23T06:07:37.101Z,22.5
2018-05-23T06:08:27.980Z,22.5
2018-05-23T06:09:17.525Z,22.5
2018-05-23T06:10:08.052Z,22.5
2018-05-23T06:10:58.177Z,22.6
2018-05-23T06:11:47.723Z,22.6
2018-05-23T06:12:37.731Z,22.5
2018-05-23T06:13:28.101Z,22.5
2018-05-23T06:14:18.451Z,22.5
2018-05-23T06:15:07.991Z,22.5
2018-05-23T06:15:58.069Z,22.5
2018-05-23T06:16:48.076Z,22.5
2018-05-23T06:17:38.140Z,22.5
2018-05-23T06:18:28.207Z,22.5
2018-05-23T06:19:18.276Z,22.5
2018-05-23T06:20:08.330Z,22.5
2018-05-23T06:20:58.377Z,22.5
2018-05-23T06:21:49.106Z,22.6
2018-05-23T06:22:38.770Z,22.5
2018-05-23T06:23:28.852Z,22.5
2018-05-23T06:24:18.651Z,22.5
2018-05-23T06:25:08.668Z,22.6
2018-05-23T06:25:59.368Z,22.6
2018-05-23T06:26:49.113Z,22.6
2018-05-23T06:27:38.972Z,22.6
2018-05-23T06:28:29.270Z,22.6
2018-05-23T06:29:19.016Z,22.7
2018-05-23T06:30:09.365Z,22.8
2018-05-23T06:30:58.958Z,22.8
2018-05-23T06:31:49.774Z,22.8
2018-05-23T06:32:38.139Z,22.8
2018-05-23T06:33:29.352Z,22.8
2018-05-23T06:34:19.680Z,22.8
2018-05-23T06:35:10.011Z,22.8
2018-05-23T06:35:59.514Z,22.8
2018-05-23T06:36:50.138Z,22.8
2018-05-23T06:37:39.081Z,22.8
2018-05-23T06:38:30.012Z,22.8
2018-05-23T06:39:20.417Z,22.9
2018-05-23T06:40:09.837Z,22.9
2018-05-23T06:40:59.914Z,22.9
2018-05-23T06:41:50.555Z,22.9
2018-05-23T06:42:40.332Z,22.9
2018-05-23T06:43:30.965Z,22.9
2018-05-23T06:44:20.432Z,22.9
2018-05-23T06:45:10.239Z,22.9
2018-05-23T06:46:00.341Z,22.9
2018-05-23T06:46:50.127Z,22.9
2018-05-23T06:47:41.055Z,22.9
2018-05-23T06:48:30.889Z,22.9
2018-05-23T06:49:20.852Z,22.9
2018-05-23T06:50:12.413Z,22.9
2018-05-23T06:51:00.992Z,22.9
2018-05-23T06:51:51.053Z,22.9
2018-05-23T06:52:40.876Z,22.8
2018-05-23T06:53:30.786Z,22.9
2018-05-23T06:54:21.479Z,22.9
2018-05-23T06:55:11.314Z,22.9
2018-05-23T06:56:01.354Z,22.9
2018-05-23T06:56:51.160Z,22.9
2018-05-23T06:57:40.935Z,22.9
2018-05-23T06:58:31.015Z,22.9
2018-05-23T06:59:21.900Z,22.9
2018-05-23T07:00:13.581Z,22.9
2018-05-23T07:01:03.166Z,23
2018-05-23T07:01:53.164Z,23
2018-05-23T07:02:43.526Z,23
2018-05-23T07:03:31.203Z,23
2018-05-23T07:04:21.530Z,23
2018-05-23T07:05:12.317Z,23
2018-05-23T07:06:02.656Z,23.1
2018-05-23T07:06:52.808Z,23.1
2018-05-23T07:07:43.033Z,23
2018-05-23T07:08:33.458Z,23.1
2018-05-23T07:09:24.362Z,23.1
2018-05-23T07:10:14.118Z,23.1
2018-05-23T07:11:02.844Z,23.1
2018-05-23T07:11:52.274Z,23.1
2018-05-23T07:12:42.715Z,23.1
2018-05-23T07:13:34.675Z,23.1
2018-05-23T07:14:24.713Z,23.1
2018-05-23T07:15:14.319Z,23.1
2018-05-23T07:16:03.999Z,23.1
2018-05-23T07:16:54.298Z,23.1
2018-05-23T07:17:44.798Z,23.1
2018-05-23T07:18:34.803Z,23.1
2018-05-23T07:19:24.525Z,23.1
2018-05-23T07:20:14.604Z,23.1
2018-05-23T07:21:05.274Z,23.1
2018-05-23T07:21:54.535Z,23.1
2018-05-23T07:22:45.076Z,23.1
2018-05-23T07:23:35.184Z,23.1
2018-05-23T07:24:25.508Z,23.1
2018-05-23T07:25:15.571Z,23.1
2018-05-23T07:26:06.404Z,23.1
2018-05-23T07:26:56.008Z,23.1
2018-05-23T07:27:45.447Z,23.1
2018-05-23T07:28:36.053Z,23.1
2018-05-23T07:29:25.897Z,23.1
2018-05-23T07:30:16.190Z,23.2
2018-05-23T07:31:06.283Z,23.1
2018-05-23T07:31:56.974Z,23.1
2018-05-23T07:32:45.287Z,23.1
2018-05-23T07:33:36.198Z,23.2
2018-05-23T07:34:25.793Z,23.1
2018-05-23T07:35:16.589Z,23.2
2018-05-23T07:36:06.079Z,23.2
2018-05-23T07:36:56.455Z,23.2
2018-05-23T07:37:46.204Z,23.2
2018-05-23T07:38:36.611Z,23.2
2018-05-23T07:39:26.639Z,23.2
2018-05-23T07:40:16.182Z,23.2
2018-05-23T07:41:07.031Z,23.2
2018-05-23T07:41:56.666Z,23.2
2018-05-23T07:42:47.157Z,23.2
2018-05-23T07:43:36.146Z,23.2
2018-05-23T07:44:26.764Z,23.2
2018-05-23T07:45:16.359Z,23.2
2018-05-23T07:46:06.827Z,23.2
2018-05-23T07:46:56.651Z,23.2
2018-05-23T07:47:46.456Z,23.2
2018-05-23T07:48:37.351Z,23.2
2018-05-23T07:49:26.212Z,23.2
2018-05-23T07:50:17.509Z,23.2
2018-05-23T07:51:07.539Z,23.3
2018-05-23T07:51:57.309Z,23.3
2018-05-23T07:52:47.094Z,23.2
2018-05-23T07:53:38.032Z,23.3
2018-05-23T07:54:26.756Z,23.3
2018-05-23T07:55:17.575Z,23.3
2018-05-23T07:56:07.353Z,23.3
2018-05-23T07:56:57.729Z,23.3
2018-05-23T07:57:47.051Z,23.3
2018-05-23T07:58:37.284Z,23.3
2018-05-23T07:59:27.901Z,23.3
2018-05-23T08:00:17.203Z,23.3
2018-05-23T08:01:08.326Z,23.3
2018-05-23T08:01:58.115Z,23.3
2018-05-23T08:02:47.975Z,23.3
2018-05-23T08:03:37.933Z,23.3
2018-05-23T08:04:28.601Z,23.3
2018-05-23T08:05:18.668Z,23.3
2018-05-23T08:06:08.467Z,23.3
2018-05-23T08:06:58.612Z,23.3
2018-05-23T08:07:48.136Z,23.3
2018-05-23T08:08:39.180Z,23.3
2018-05-23T08:09:29.020Z,23.3
2018-05-23T08:10:18.296Z,23.3
2018-05-23T08:11:09.183Z,23.3
2018-05-23T08:11:59.259Z,23.3
2018-05-23T08:12:49.252Z,23.3
2018-05-23T08:13:39.556Z,23.3
2018-05-23T08:14:29.312Z,23.3
2018-05-23T08:15:18.559Z,23.3
2018-05-23T08:16:09.183Z,23.3
2018-05-23T08:16:59.314Z,23.3
2018-05-23T08:17:49.899Z,23.3
2018-05-23T08:18:38.840Z,23.3
2018-05-23T08:19:28.644Z,23.3
2018-05-23T08:20:19.919Z,23.3
2018-05-23T08:21:09.317Z,23.3
2018-05-23T08:21:59.910Z,23.3
2018-05-23T08:22:50.322Z,23.3
2018-05-23T08:23:40.376Z,23.3
2018-05-23T08:24:31.557Z,23.3
2018-05-23T08:25:19.075Z,23.3
2018-05-23T08:26:09.227Z,23.3
2018-05-23T08:26:59.755Z,23.3
2018-05-23T08:27:50.173Z,23.3
2018-05-23T08:28:40.727Z,23.3
2018-05-23T08:29:29.732Z,23.3
2018-05-23T08:30:20.964Z,23.3
2018-05-23T08:31:10.664Z,23.3
2018-05-23T08:32:00.699Z,23.3
2018-05-23T08:32:50.738Z,23.3
2018-05-23T08:33:40.268Z,23.3
2018-05-23T08:34:30.597Z,23.3
2018-05-23T08:35:21.225Z,23.3
2018-05-23T08:36:11.022Z,23.3
2018-05-23T08:37:01.346Z,23.3
2018-05-23T08:37:50.618Z,23.3
2018-05-23T08:38:41.168Z,23.4
2018-05-23T08:39:30.814Z,23.3
2018-05-23T08:40:21.668Z,23.3
2018-05-23T08:41:10.924Z,23.3
2018-05-23T08:42:01.205Z,23.4
2018-05-23T08:42:51.014Z,23.4
2018-05-23T08:43:40.282Z,23.4
2018-05-23T08:44:31.915Z,23.3
2018-05-23T08:45:21.550Z,23.4
2018-05-23T08:46:12.339Z,23.3
2018-05-23T08:47:01.324Z,23.3
2018-05-23T08:47:51.362Z,23.3
2018-05-23T08:48:41.970Z,23.4
2018-05-23T08:49:30.925Z,23.4
2018-05-23T08:50:21.544Z,23.4
2018-05-23T08:51:12.437Z,23.4
2018-05-23T08:52:02.559Z,23.4
2018-05-23T08:52:52.344Z,23.4
2018-05-23T08:53:42.456Z,23.3
2018-05-23T08:54:32.258Z,23.4
2018-05-23T08:55:21.741Z,23.4
2018-05-23T08:56:12.952Z,23.4
2018-05-23T08:57:02.923Z,23.4
2018-05-23T08:57:52.235Z,23.4
2018-05-23T08:58:41.957Z,23.4
2018-05-23T08:59:33.110Z,23.4
2018-05-23T09:00:23.260Z,23.4
2018-05-23T09:01:12.121Z,23.4
2018-05-23T09:02:03.094Z,23.3
2018-05-23T09:02:52.886Z,23.3
2018-05-23T09:03:43.411Z,23.3
2018-05-23T09:04:32.682Z,23.3
2018-05-23T09:05:22.894Z,23.4
2018-05-23T09:06:13.342Z,23.4
2018-05-23T09:07:03.488Z,23.4
2018-05-23T09:07:53.033Z,23.4
2018-05-23T09:08:43.047Z,23.3
2018-05-23T09:09:33.597Z,23.4
2018-05-23T09:10:23.939Z,23.4
2018-05-23T09:11:13.776Z,23.4
2018-05-23T09:12:03.550Z,23.4
2018-05-23T09:12:53.337Z,23.4
2018-05-23T09:13:43.400Z,23.4
2018-05-23T09:14:33.458Z,23.4
2018-05-23T09:15:23.492Z,23.4
2018-05-23T09:16:13.741Z,23.4
2018-05-23T09:17:03.268Z,23.4
2018-05-23T09:17:53.228Z,23.4
2018-05-23T09:18:42.785Z,23.4
2018-05-23T09:19:33.077Z,23.4
2018-05-23T09:20:23.904Z,23.4
2018-05-23T09:21:14.763Z,23.4
2018-05-23T09:22:04.073Z,23.4
2018-05-23T09:22:54.643Z,23.4
2018-05-23T09:23:43.861Z,23.4
2018-05-23T09:24:34.788Z,23.4
2018-05-23T09:25:26.066Z,23.4
2018-05-23T09:26:15.249Z,23.4
2018-05-23T09:27:04.677Z,23.4
2018-05-23T09:27:54.491Z,23.4
2018-05-23T09:28:45.356Z,23.5
2018-05-23T09:29:35.519Z,23.5
2018-05-23T09:30:24.964Z,23.5
2018-05-23T09:31:14.435Z,23.5
2018-05-23T09:32:05.168Z,23.4
2018-05-23T09:32:54.911Z,23.5
2018-05-23T09:33:44.994Z,23.4
2018-05-23T09:34:35.841Z,23.5
2018-05-23T09:35:25.420Z,23.5
2018-05-23T09:36:15.638Z,23.4
2018-05-23T09:37:05.512Z,23.5
2018-05-23T09:37:54.811Z,23.4
2018-05-23T09:38:45.852Z,23.4
2018-05-23T09:39:36.204Z,23.5
2018-05-23T09:40:25.528Z,23.5
2018-05-23T09:41:14.455Z,23.5
2018-05-23T09:42:03.933Z,23.6
2018-05-23T09:42:53.976Z,23.5
2018-05-23T09:43:43.514Z,23.5
2018-05-23T09:44:34.710Z,23.5
2018-05-23T09:45:24.730Z,23.5
2018-05-23T09:46:14.824Z,23.5
2018-05-23T09:47:04.367Z,23.5
2018-05-23T09:47:54.911Z,23.5
2018-05-23T09:48:45.102Z,23.5
2018-05-23T09:49:34.778Z,23.5
2018-05-23T09:50:25.123Z,23.5
2018-05-23T09:51:15.228Z,23.6
2018-05-23T09:52:04.984Z,23.5
2018-05-23T09:52:54.731Z,23.5
2018-05-23T09:53:44.831Z,23.5
2018-05-23T09:54:34.783Z,23.5
2018-05-23T09:55:25.497Z,23.6
2018-05-23T09:56:14.787Z,23.6
2018-05-23T09:57:05.386Z,23.6
2018-05-23T09:57:57.485Z,23.6
2018-05-23T09:58:47.711Z,23.5
2018-05-23T09:59:37.198Z,23.5
2018-05-23T10:00:26.499Z,23.5
2018-05-23T10:01:17.630Z,23.5
2018-05-23T10:02:07.777Z,23.5
2018-05-23T10:02:57.978Z,23.5
2018-05-23T10:03:47.895Z,23.5
2018-05-23T10:04:37.567Z,23.5
2018-05-23T10:05:28.192Z,23.5
2018-05-23T10:06:17.708Z,23.5
2018-05-23T10:07:07.008Z,23.5
2018-05-23T10:07:57.682Z,23.5
2018-05-23T10:08:48.164Z,23.5
2018-05-23T10:09:37.975Z,23.5
2018-05-23T10:10:28.818Z,23.5
2018-05-23T10:11:18.660Z,23.5
2018-05-23T10:12:08.753Z,23.6
2018-05-23T10:12:58.472Z,23.5
2018-05-23T10:13:48.586Z,23.6
2018-05-23T10:14:38.610Z,23.6
2018-05-23T10:15:28.979Z,23.6
2018-05-23T10:16:18.999Z,23.6
2018-05-23T10:17:09.117Z,23.6
2018-05-23T10:17:59.175Z,23.6
2018-05-23T10:18:48.757Z,23.6
2018-05-23T10:19:39.012Z,23.6
2018-05-23T10:20:28.785Z,23.6
2018-05-23T10:21:19.448Z,23.6
2018-05-23T10:22:09.274Z,23.6
2018-05-23T10:22:59.045Z,23.6
2018-05-23T10:23:49.042Z,23.6
2018-05-23T10:24:39.470Z,23.6
2018-05-23T10:25:29.486Z,23.6
2018-05-23T10:26:20.700Z,23.6
2018-05-23T10:27:09.583Z,23.6
2018-05-23T10:27:59.930Z,23.6
2018-05-23T10:28:49.153Z,23.6
2018-05-23T10:29:39.254Z,23.6
2018-05-23T10:30:29.612Z,23.7
2018-05-23T10:31:18.831Z,23.6
2018-05-23T10:32:09.206Z,23.7
2018-05-23T10:32:59.539Z,23.7
2018-05-23T10:33:50.422Z,23.7
2018-05-23T10:34:39.378Z,23.7
2018-05-23T10:35:30.524Z,23.7
2018-05-23T10:36:19.232Z,23.7
2018-05-23T10:37:09.866Z,23.7
2018-05-23T10:38:00.770Z,23.7
2018-05-23T10:38:50.786Z,23.8
2018-05-23T10:39:40.866Z,23.8
2018-05-23T10:40:30.935Z,23.8
2018-05-23T10:41:19.627Z,23.8
2018-05-23T10:42:10.788Z,23.8
2018-05-23T10:43:00.865Z,23.8
2018-05-23T10:43:50.907Z,23.8
2018-05-23T10:44:40.975Z,23.8
2018-05-23T10:45:31.065Z,23.8
2018-05-23T10:46:22.622Z,23.8
2018-05-23T10:47:10.435Z,23.8
2018-05-23T10:48:00.660Z,23.8
2018-05-23T10:48:50.776Z,23.8
2018-05-23T10:49:41.674Z,23.8
2018-05-23T10:50:31.414Z,23.8
2018-05-23T10:51:20.350Z,23.8
2018-05-23T10:52:12.745Z,23.8
2018-05-23T10:53:01.080Z,23.8
2018-05-23T10:53:52.024Z,23.8
2018-05-23T10:54:41.211Z,23.8
2018-05-23T10:55:31.531Z,23.8
2018-05-23T10:56:21.161Z,23.8
2018-05-23T10:57:13.394Z,23.8
2018-05-23T10:58:01.493Z,23.8
2018-05-23T10:58:51.832Z,23.8
2018-05-23T10:59:42.173Z,23.8
2018-05-23T11:00:32.016Z,23.8
2018-05-23T11:01:22.015Z,23.8
2018-05-23T11:02:11.388Z,23.8
2018-05-23T11:03:02.783Z,23.8
2018-05-23T11:03:52.231Z,23.8
2018-05-23T11:04:41.460Z,23.8
2018-05-23T11:05:33.049Z,23.8
2018-05-23T11:06:22.401Z,23.8
2018-05-23T11:07:12.480Z,23.8
2018-05-23T11:08:03.171Z,23.8
2018-05-23T11:08:53.126Z,23.9
2018-05-23T11:09:42.941Z,23.9